createdAt,value
2019-05-16T00:00:22.255Z,102982.92
2019-05-16T00:01:23.729Z,102982.19
2019-05-16T00:02:25.916Z,102982.05
2019-05-16T00:03:28.062Z,102981.31
2019-05-16T00:04:29.706Z,102981.31
2019-05-16T00:05:31.128Z,102984.88
2019-05-16T00:06:32.540Z,102981.81
2019-05-16T00:07:33.982Z,102983.25
2019-05-16T00:08:35.393Z,102983.25
2019-05-16T00:09:38.143Z,102987.29
2019-05-16T00:10:39.869Z,102989.52
2019-05-16T00:11:41.241Z,102981.91
2019-05-16T00:12:42.763Z,102988.27
2019-05-16T00:13:44.241Z,102983.76
2019-05-16T00:14:45.703Z,102984.23
2019-05-16T00:15:48.127Z,102983.86
2019-05-16T00:16:49.618Z,102986.55
2019-05-16T00:17:51.030Z,102983.38
2019-05-16T00:18:52.445Z,102982.61
2019-05-16T00:19:53.954Z,102985.30
2019-05-16T00:20:55.380Z,102987.62
2019-05-16T00:21:58.115Z,102993.38
2019-05-16T00:22:59.549Z,102993.50
2019-05-16T00:24:00.922Z,102988.12
2019-05-16T00:25:02.617Z,102991.78
2019-05-16T00:26:04.402Z,102989.94
2019-05-16T00:27:08.151Z,102990.06
2019-05-16T00:28:09.312Z,102997.16
2019-05-16T00:29:10.716Z,102994.57
2019-05-16T00:30:12.424Z,102994.94
2019-05-16T00:31:13.830Z,102993.59
2019-05-16T00:32:15.301Z,102990.53
2019-05-16T00:33:18.338Z,102991.04
2019-05-16T00:34:19.923Z,102990.66
2019-05-16T00:35:21.332Z,102987.00
2019-05-16T00:36:22.821Z,102987.98
2019-05-16T00:37:24.196Z,102992.02
2019-05-16T00:38:27.625Z,102988.82
2019-05-16T00:39:30.087Z,102985.75
2019-05-16T00:40:31.484Z,102992.86
2019-05-16T00:41:32.872Z,102992.86
2019-05-16T00:42:34.282Z,102993.73
2019-05-16T00:43:37.786Z,102987.98
2019-05-16T00:44:38.974Z,102989.19
2019-05-16T00:45:40.551Z,102995.81
2019-05-16T00:46:41.942Z,102997.16
2019-05-16T00:47:43.334Z,102994.47
2019-05-16T00:48:44.715Z,102986.77
2019-05-16T00:49:48.071Z,102986.27
2019-05-16T00:50:49.498Z,102989.84
2019-05-16T00:51:52.045Z,102980.80
2019-05-16T00:52:53.428Z,102987.52
2019-05-16T00:53:54.828Z,102982.51
2019-05-16T00:54:58.000Z,102982.51
2019-05-16T00:56:00.115Z,102979.82
2019-05-16T00:57:03.435Z,102979.34
2019-05-16T00:58:04.920Z,102981.54
2019-05-16T00:59:07.905Z,102979.22
2019-05-16T01:00:11.426Z,102977.88
2019-05-16T01:01:12.911Z,102979.59
2019-05-16T01:02:14.404Z,102976.43
2019-05-16T01:03:16.177Z,102980.56
2019-05-16T01:04:18.268Z,102981.81
2019-05-16T01:05:19.741Z,102981.44
2019-05-16T01:06:23.032Z,102982.78
2019-05-16T01:07:24.512Z,102981.44
2019-05-16T01:08:28.146Z,102983.16
2019-05-16T01:09:29.487Z,102979.72
2019-05-16T01:10:30.872Z,102978.38
2019-05-16T01:11:32.261Z,102980.56
2019-05-16T01:12:33.661Z,102976.16
2019-05-16T01:13:35.051Z,102983.76
2019-05-16T01:14:38.487Z,102981.54
2019-05-16T01:15:39.829Z,102978.47
2019-05-16T01:16:42.292Z,102986.08
2019-05-16T01:17:43.713Z,102984.33
2019-05-16T01:18:45.108Z,102986.17
2019-05-16T01:19:48.471Z,102983.48
2019-05-16T01:20:50.006Z,102984.83
2019-05-16T01:21:51.393Z,102982.61
2019-05-16T01:22:52.836Z,102983.11
2019-05-16T01:23:54.212Z,102981.77
2019-05-16T01:24:55.611Z,102995.22
2019-05-16T01:25:58.917Z,102991.66
2019-05-16T01:27:00.392Z,102993.50
2019-05-16T01:28:01.792Z,102986.77
2019-05-16T01:29:04.159Z,102979.67
2019-05-16T01:30:08.842Z,102989.56
2019-05-16T01:31:09.641Z,102989.09
2019-05-16T01:32:11.029Z,102982.37
2019-05-16T01:33:12.548Z,102988.59
2019-05-16T01:34:13.950Z,102989.56
2019-05-16T01:35:15.370Z,102989.69
2019-05-16T01:36:26.253Z,102991.51
2019-05-16T01:37:20.082Z,102993.36
2019-05-16T01:38:21.477Z,102992.48
2019-05-16T01:39:22.948Z,102992.61
2019-05-16T01:40:24.444Z,102994.05
2019-05-16T01:41:25.827Z,102989.17
2019-05-16T01:42:27.876Z,102987.33
2019-05-16T01:43:29.508Z,102987.83
2019-05-16T01:44:30.916Z,102990.99
2019-05-16T01:45:32.320Z,102992.47
2019-05-16T01:46:34.005Z,102981.70
2019-05-16T01:47:35.860Z,102992.47
2019-05-16T01:48:38.141Z,102988.80
2019-05-16T01:49:39.664Z,102992.33
2019-05-16T01:50:41.045Z,102991.49
2019-05-16T01:51:42.429Z,102988.80
2019-05-16T01:52:44.817Z,102989.64
2019-05-16T01:53:48.640Z,102991.87
2019-05-16T01:54:49.616Z,102986.11
2019-05-16T01:55:51.013Z,102985.61
2019-05-16T01:56:52.384Z,102985.74
2019-05-16T01:57:53.890Z,102989.64
2019-05-16T01:58:55.315Z,102988.30
2019-05-16T01:59:58.933Z,102982.45
2019-05-16T02:01:11.693Z,102984.77
2019-05-16T02:02:04.472Z,102986.95
2019-05-16T02:03:08.115Z,102988.20
2019-05-16T02:04:12.234Z,102986.48
2019-05-16T02:05:15.296Z,102990.52
2019-05-16T02:06:18.390Z,102991.87
2019-05-16T02:07:20.074Z,102991.49
2019-05-16T02:08:21.674Z,102984.86
2019-05-16T02:09:23.180Z,102987.19
2019-05-16T02:10:24.830Z,102991.72
2019-05-16T02:11:28.364Z,102990.98
2019-05-16T02:12:29.564Z,102995.38
2019-05-16T02:13:30.972Z,102990.60
2019-05-16T02:14:32.372Z,102989.26
2019-05-16T02:15:38.473Z,102986.94
2019-05-16T02:16:40.087Z,102992.79
2019-05-16T02:17:41.727Z,102991.34
2019-05-16T02:18:43.122Z,102987.78
2019-05-16T02:19:44.541Z,102988.75
2019-05-16T02:20:48.016Z,102989.26
2019-05-16T02:21:50.685Z,102992.41
2019-05-16T02:22:52.216Z,102990.10
2019-05-16T02:23:53.696Z,102993.66
2019-05-16T02:24:55.097Z,102990.60
2019-05-16T02:25:57.974Z,102998.17
2019-05-16T02:26:59.466Z,102996.35
2019-05-16T02:28:00.842Z,102997.33
2019-05-16T02:29:02.343Z,103000.98
2019-05-16T02:30:04.967Z,103002.70
2019-05-16T02:31:06.354Z,103001.36
2019-05-16T02:32:11.429Z,102994.27
2019-05-16T02:33:11.712Z,102992.55
2019-05-16T02:34:13.236Z,102992.55
2019-05-16T02:35:14.775Z,102990.42
2019-05-16T02:36:16.146Z,102986.89
2019-05-16T02:37:25.935Z,102989.64
2019-05-16T02:38:21.397Z,102990.61
2019-05-16T02:39:22.928Z,102992.46
2019-05-16T02:40:24.722Z,102995.63
2019-05-16T02:41:26.194Z,102995.63
2019-05-16T02:42:30.676Z,102997.47
2019-05-16T02:43:31.541Z,103002.34
2019-05-16T02:44:33.050Z,103001.00
2019-05-16T02:45:34.444Z,102996.59
2019-05-16T02:46:35.826Z,102997.09
2019-05-16T02:47:37.212Z,102997.09
2019-05-16T02:48:41.043Z,102996.22
2019-05-16T02:49:42.563Z,102998.06
2019-05-16T02:50:44.074Z,102995.25
2019-05-16T02:51:45.454Z,102995.38
2019-05-16T02:52:46.941Z,102998.44
2019-05-16T02:53:50.961Z,102999.28
2019-05-16T02:54:52.011Z,102995.84
2019-05-16T02:55:53.499Z,102998.44
2019-05-16T02:56:54.894Z,103000.25
2019-05-16T02:57:56.295Z,102996.72
2019-05-16T02:59:01.421Z,103000.25
2019-05-16T03:00:02.150Z,103002.47
2019-05-16T03:01:03.943Z,102996.22
2019-05-16T03:02:05.348Z,102997.09
2019-05-16T03:03:06.877Z,102997.94
2019-05-16T03:04:11.012Z,102999.78
2019-05-16T03:05:12.511Z,102997.56
2019-05-16T03:06:14.197Z,102996.22
2019-05-16T03:07:35.441Z,103002.94
2019-05-16T03:08:21.976Z,103002.09
2019-05-16T03:09:23.962Z,102997.56
2019-05-16T03:10:25.324Z,102997.19
2019-05-16T03:11:27.043Z,102994.03
2019-05-16T03:12:31.001Z,102999.87
2019-05-16T03:13:35.266Z,102994.50
2019-05-16T03:14:37.573Z,102995.38
2019-05-16T03:15:40.806Z,102994.88
2019-05-16T03:16:43.347Z,102998.06
2019-05-16T03:17:46.818Z,102993.16
2019-05-16T03:18:51.417Z,103000.75
2019-05-16T03:19:55.769Z,102999.28
2019-05-16T03:21:00.593Z,103000.25
2019-05-16T03:22:03.868Z,102997.56
2019-05-16T03:23:05.368Z,103000.16
2019-05-16T03:24:06.777Z,102997.94
2019-05-16T03:25:11.106Z,102998.44
2019-05-16T03:26:12.038Z,102997.09
2019-05-16T03:27:14.265Z,102996.22
2019-05-16T03:28:15.625Z,102995.38
2019-05-16T03:29:17.026Z,102997.56
2019-05-16T03:30:23.412Z,103000.25
2019-05-16T03:31:24.656Z,103001.97
2019-05-16T03:32:25.101Z,102997.47
2019-05-16T03:33:35.020Z,102997.47
2019-05-16T03:34:34.452Z,102998.31
2019-05-16T03:35:34.339Z,102994.78
2019-05-16T03:36:36.193Z,102991.59
2019-05-16T03:37:54.499Z,102997.34
2019-05-16T03:38:41.497Z,103000.91
2019-05-16T03:39:43.107Z,102997.71
2019-05-16T03:40:44.474Z,102997.71
2019-05-16T03:41:45.878Z,102996.36
2019-05-16T03:42:47.384Z,102996.77
2019-05-16T03:43:50.649Z,102998.99
2019-05-16T03:44:52.322Z,103001.18
2019-05-16T03:45:53.738Z,103001.59
2019-05-16T03:46:55.151Z,102998.39
2019-05-16T03:47:57.550Z,102999.64
2019-05-16T03:49:02.095Z,102997.42
2019-05-16T03:50:04.211Z,102996.83
2019-05-16T03:51:05.590Z,102994.51
2019-05-16T03:52:06.973Z,102997.09
2019-05-16T03:53:11.378Z,102992.69
2019-05-16T03:54:12.673Z,102997.09
2019-05-16T03:55:14.485Z,102997.94
2019-05-16T03:56:15.867Z,102995.16
2019-05-16T03:57:20.933Z,102995.16
2019-05-16T03:58:22.473Z,103000.53
2019-05-16T03:59:23.902Z,103003.09
2019-05-16T04:00:51.286Z,102999.44
2019-05-16T04:01:51.185Z,102991.87
2019-05-16T04:02:52.662Z,102998.73
2019-05-16T04:03:54.062Z,102996.14
2019-05-16T04:04:55.442Z,102992.23
2019-05-16T04:05:56.848Z,102995.02
2019-05-16T04:07:01.491Z,102999.06
2019-05-16T04:08:18.380Z,103001.28
2019-05-16T04:09:07.222Z,102998.96
2019-05-16T04:10:10.972Z,103001.66
2019-05-16T04:11:12.802Z,102997.48
2019-05-16T04:12:14.166Z,103001.05
2019-05-16T04:13:15.555Z,102996.14
2019-05-16T04:14:16.978Z,102995.67
2019-05-16T04:15:21.224Z,103001.52
2019-05-16T04:16:21.766Z,102996.14
2019-05-16T04:17:24.139Z,102999.20
2019-05-16T04:18:25.524Z,102998.36
2019-05-16T04:19:26.988Z,102992.98
2019-05-16T04:20:30.495Z,102991.27
2019-05-16T04:21:32.462Z,102995.67
2019-05-16T04:22:34.074Z,102997.39
2019-05-16T04:23:35.455Z,102995.07
2019-05-16T04:24:36.872Z,102997.39
2019-05-16T04:25:41.022Z,102987.47
2019-05-16T04:26:42.951Z,102996.89
2019-05-16T04:27:44.424Z,102991.88
2019-05-16T04:28:45.827Z,102989.69
2019-05-16T04:29:47.253Z,102991.04
2019-05-16T04:30:50.887Z,102988.82
2019-05-16T04:31:52.365Z,102989.69
2019-05-16T04:32:53.874Z,102988.34
2019-05-16T04:33:55.302Z,102989.09
2019-05-16T04:34:56.729Z,102986.03
2019-05-16T04:36:00.931Z,102982.59
2019-05-16T04:37:01.484Z,102989.69
2019-05-16T04:38:02.952Z,102992.02
2019-05-16T04:39:05.655Z,102988.45
2019-05-16T04:40:07.253Z,102992.98
2019-05-16T04:41:11.571Z,102989.92
2019-05-16T04:42:11.922Z,102990.89
2019-05-16T04:43:13.300Z,102997.62
2019-05-16T04:44:14.702Z,102997.72
2019-05-16T04:45:16.216Z,102997.34
2019-05-16T04:46:20.921Z,102993.06
2019-05-16T04:47:21.296Z,102995.25
2019-05-16T04:48:23.192Z,103000.16
2019-05-16T04:49:24.851Z,102998.45
2019-05-16T04:50:26.371Z,103004.29
2019-05-16T04:51:30.516Z,103001.23
2019-05-16T04:52:31.063Z,103001.23
2019-05-16T04:53:32.467Z,103003.08
2019-05-16T04:54:33.863Z,102999.05
2019-05-16T04:55:35.387Z,102997.20
2019-05-16T04:56:36.894Z,102994.64
2019-05-16T04:57:41.766Z,102993.30
2019-05-16T04:58:41.587Z,102999.05
2019-05-16T04:59:42.955Z,102995.48
2019-05-16T05:00:44.628Z,103003.08
2019-05-16T05:01:46.037Z,102997.33
2019-05-16T05:02:47.457Z,102999.05
2019-05-16T05:04:02.106Z,103003.08
2019-05-16T05:04:52.281Z,103001.36
2019-05-16T05:05:53.704Z,103003.08
2019-05-16T05:06:55.945Z,103003.08
2019-05-16T05:07:57.586Z,103001.60
2019-05-16T05:09:03.318Z,102998.91
2019-05-16T05:10:04.561Z,102996.59
2019-05-16T05:11:05.955Z,102998.22
2019-05-16T05:12:07.356Z,103003.00
2019-05-16T05:13:10.972Z,102999.70
2019-05-16T05:14:12.569Z,103005.23
2019-05-16T05:15:14.083Z,103001.57
2019-05-16T05:16:15.495Z,102995.09
2019-05-16T05:17:16.904Z,103001.62
2019-05-16T05:18:21.024Z,102989.28
2019-05-16T05:19:21.528Z,102994.44
2019-05-16T05:20:22.910Z,102996.39
2019-05-16T05:21:24.504Z,102994.34
2019-05-16T05:22:25.875Z,102995.45
2019-05-16T05:23:29.947Z,102994.25
2019-05-16T05:24:30.530Z,102996.24
2019-05-16T05:25:31.906Z,103001.77
2019-05-16T05:26:33.397Z,103001.91
2019-05-16T05:27:34.797Z,102997.13
2019-05-16T05:28:36.272Z,102992.39
2019-05-16T05:29:39.761Z,103001.47
2019-05-16T05:30:40.945Z,103000.63
2019-05-16T05:31:44.780Z,103000.27
2019-05-16T05:32:45.840Z,102998.72
2019-05-16T05:33:50.534Z,103001.34
2019-05-16T05:34:51.516Z,103002.92
2019-05-16T05:35:52.925Z,103001.23
2019-05-16T05:36:54.310Z,102999.28
2019-05-16T05:37:55.705Z,103003.08
2019-05-16T05:39:09.109Z,103002.34
2019-05-16T05:40:00.380Z,102994.02
2019-05-16T05:41:01.781Z,103005.33
2019-05-16T05:42:03.204Z,103004.21
2019-05-16T05:43:04.579Z,103005.69
2019-05-16T05:44:06.091Z,102997.50
2019-05-16T05:45:08.172Z,102998.09
2019-05-16T05:46:11.230Z,102998.84
2019-05-16T05:47:12.776Z,102997.61
2019-05-16T05:48:14.174Z,102994.34
2019-05-16T05:49:15.556Z,102992.75
2019-05-16T05:50:17.245Z,102997.91
2019-05-16T05:51:20.753Z,102993.72
2019-05-16T05:52:22.018Z,102992.27
2019-05-16T05:53:23.405Z,102992.02
2019-05-16T05:54:24.786Z,102994.95
2019-05-16T05:55:26.170Z,102992.63
2019-05-16T05:56:30.316Z,102995.58
2019-05-16T05:57:31.130Z,102989.58
2019-05-16T05:58:32.516Z,102988.96
2019-05-16T05:59:33.899Z,102979.89
2019-05-16T06:00:35.392Z,102975.84
2019-05-16T06:01:36.870Z,102976.14
2019-05-16T06:02:40.336Z,102975.53
2019-05-16T06:03:41.976Z,102978.08
2019-05-16T06:04:43.372Z,102972.95
2019-05-16T06:05:44.747Z,102983.59
2019-05-16T06:06:46.143Z,102975.14
2019-05-16T06:07:47.632Z,102981.63
2019-05-16T06:08:50.198Z,102976.24
2019-05-16T06:09:56.283Z,102976.61
2019-05-16T06:10:55.164Z,102974.28
2019-05-16T06:11:56.568Z,102978.58
2019-05-16T06:13:00.490Z,102978.07
2019-05-16T06:14:01.355Z,102977.23
2019-05-16T06:15:08.675Z,102978.44
2019-05-16T06:16:07.848Z,102976.14
2019-05-16T06:17:11.523Z,102970.24
2019-05-16T06:18:12.525Z,102977.86
2019-05-16T06:19:13.939Z,102976.51
2019-05-16T06:20:15.341Z,102980.41
2019-05-16T06:21:16.752Z,102980.41
2019-05-16T06:22:20.408Z,102987.05
2019-05-16T06:23:21.531Z,102984.35
2019-05-16T06:24:22.909Z,102981.04
2019-05-16T06:25:24.306Z,102979.32
2019-05-16T06:26:25.774Z,102984.72
2019-05-16T06:27:27.269Z,102981.04
2019-05-16T06:28:30.883Z,102979.69
2019-05-16T06:29:32.142Z,102976.48
2019-05-16T06:30:34.036Z,102978.70
2019-05-16T06:31:35.528Z,102979.07
2019-05-16T06:32:36.901Z,102982.24
2019-05-16T06:33:40.966Z,102981.77
2019-05-16T06:34:41.596Z,102978.70
2019-05-16T06:35:42.988Z,102980.42
2019-05-16T06:36:44.411Z,102978.09
2019-05-16T06:37:45.812Z,102982.13
2019-05-16T06:38:49.614Z,102980.79
2019-05-16T06:39:50.608Z,102978.45
2019-05-16T06:40:52.897Z,102973.06
2019-05-16T06:41:54.480Z,102973.53
2019-05-16T06:42:55.883Z,102973.53
2019-05-16T06:43:57.291Z,102974.05
2019-05-16T06:45:00.859Z,102981.16
2019-05-16T06:46:02.103Z,102978.45
2019-05-16T06:47:15.854Z,102977.47
2019-05-16T06:48:07.433Z,102978.31
2019-05-16T06:49:10.384Z,102977.47
2019-05-16T06:50:11.933Z,102983.23
2019-05-16T06:51:13.339Z,102978.20
2019-05-16T06:52:14.803Z,102974.64
2019-05-16T06:53:16.195Z,102980.03
2019-05-16T06:54:17.659Z,102977.33
2019-05-16T06:55:20.549Z,102975.98
2019-05-16T06:56:22.025Z,102975.62
2019-05-16T06:57:23.412Z,102973.28
2019-05-16T06:58:24.797Z,102971.09
2019-05-16T06:59:26.213Z,102964.35
2019-05-16T07:00:29.893Z,102968.03
2019-05-16T07:01:30.928Z,102962.64
2019-05-16T07:02:34.528Z,102968.87
2019-05-16T07:03:35.700Z,102964.46
2019-05-16T07:04:37.099Z,102962.64
2019-05-16T07:05:40.487Z,102965.34
2019-05-16T07:06:54.895Z,102962.27
2019-05-16T07:07:45.032Z,102966.69
2019-05-16T07:08:46.434Z,102963.98
2019-05-16T07:09:59.803Z,102966.69
2019-05-16T07:10:51.297Z,102967.67
2019-05-16T07:11:52.673Z,102972.08
2019-05-16T07:12:54.067Z,102968.03
2019-05-16T07:13:55.604Z,102964.97
2019-05-16T07:14:57.028Z,102959.44
2019-05-16T07:16:00.420Z,102965.70
2019-05-16T07:17:01.811Z,102964.35
2019-05-16T07:18:03.383Z,102967.05
2019-05-16T07:19:04.782Z,102965.70
2019-05-16T07:20:06.677Z,102966.18
2019-05-16T07:21:10.644Z,102965.20
2019-05-16T07:22:11.560Z,102962.02
2019-05-16T07:23:12.955Z,102967.42
2019-05-16T07:24:16.917Z,102958.95
2019-05-16T07:25:17.802Z,102966.07
2019-05-16T07:26:20.564Z,102958.81
2019-05-16T07:27:22.144Z,102959.80
2019-05-16T07:28:23.547Z,102957.61
2019-05-16T07:29:24.941Z,102958.59
2019-05-16T07:30:26.654Z,102959.44
2019-05-16T07:31:29.982Z,102959.94
2019-05-16T07:32:31.432Z,102961.66
2019-05-16T07:33:32.823Z,102952.22
2019-05-16T07:34:34.205Z,102959.94
2019-05-16T07:35:35.730Z,102955.89
2019-05-16T07:36:37.128Z,102950.50
2019-05-16T07:37:40.049Z,102955.53
2019-05-16T07:38:41.759Z,102953.67
2019-05-16T07:39:43.297Z,102961.30
2019-05-16T07:40:44.804Z,102950.98
2019-05-16T07:41:46.184Z,102958.23
2019-05-16T07:42:47.592Z,102957.72
2019-05-16T07:43:50.523Z,102957.86
2019-05-16T07:44:52.284Z,102951.48
2019-05-16T07:45:53.683Z,102949.16
2019-05-16T07:46:55.085Z,102952.33
2019-05-16T07:47:56.500Z,102946.82
2019-05-16T07:49:00.917Z,102947.80
2019-05-16T07:50:01.220Z,102950.50
2019-05-16T07:51:02.764Z,102945.95
2019-05-16T07:52:04.130Z,102950.50
2019-05-16T07:53:05.523Z,102949.99
2019-05-16T07:54:06.903Z,102949.16
2019-05-16T07:55:10.868Z,102943.39
2019-05-16T07:56:11.935Z,102942.16
2019-05-16T07:57:19.621Z,102942.89
2019-05-16T07:58:16.600Z,102941.17
2019-05-16T07:59:17.968Z,102946.09
2019-05-16T08:00:21.733Z,102945.22
2019-05-16T08:01:22.940Z,102940.33
2019-05-16T08:02:24.346Z,102941.31
2019-05-16T08:03:25.760Z,102941.79
2019-05-16T08:04:27.176Z,102945.36
2019-05-16T08:05:29.860Z,102940.95
2019-05-16T08:06:34.132Z,102939.60
2019-05-16T08:07:35.300Z,102942.77
2019-05-16T08:08:36.707Z,102940.95
2019-05-16T08:09:39.792Z,102939.23
2019-05-16T08:10:46.371Z,102943.28
2019-05-16T08:11:44.569Z,102941.06
2019-05-16T08:12:46.077Z,102944.63
2019-05-16T08:13:47.485Z,102937.52
2019-05-16T08:14:50.115Z,102938.50
2019-05-16T08:15:51.710Z,102941.67
2019-05-16T08:16:53.217Z,102938.50
2019-05-16T08:17:54.592Z,102940.22
2019-05-16T08:18:55.993Z,102938.14
2019-05-16T08:19:59.857Z,102933.11
2019-05-16T08:21:01.522Z,102935.80
2019-05-16T08:22:03.116Z,102937.16
2019-05-16T08:23:04.527Z,102938.50
2019-05-16T08:24:07.948Z,102930.05
2019-05-16T08:25:10.675Z,102935.44
2019-05-16T08:26:12.449Z,102933.73
2019-05-16T08:27:13.981Z,102932.74
2019-05-16T08:28:15.479Z,102933.22
2019-05-16T08:29:16.856Z,102925.64
2019-05-16T08:30:21.018Z,102928.81
2019-05-16T08:31:21.753Z,102929.31
2019-05-16T08:32:23.295Z,102925.75
2019-05-16T08:33:24.677Z,102924.91
2019-05-16T08:34:26.185Z,102928.44
2019-05-16T08:35:27.589Z,102935.70
2019-05-16T08:36:31.218Z,102919.98
2019-05-16T08:38:36.573Z,102924.03
2019-05-16T08:39:37.975Z,102920.46
2019-05-16T08:41:03.463Z,102925.85
2019-05-16T08:41:42.800Z,102926.25
2019-05-16T08:42:44.210Z,102921.23
2019-05-16T08:43:45.618Z,102919.11
2019-05-16T08:44:47.020Z,102924.03
2019-05-16T08:45:50.837Z,102917.29
2019-05-16T08:46:57.056Z,102921.81
2019-05-16T08:47:55.060Z,102923.16
2019-05-16T08:48:56.546Z,102919.52
2019-05-16T08:50:00.692Z,102920.09
2019-05-16T08:51:03.914Z,102923.66
2019-05-16T08:52:04.705Z,102918.27
2019-05-16T08:53:06.225Z,102916.41
2019-05-16T08:54:07.634Z,102920.09
2019-05-16T08:55:12.577Z,102913.72
2019-05-16T08:56:13.380Z,102913.36
2019-05-16T08:57:27.027Z,102917.40
2019-05-16T08:58:22.174Z,102912.00
2019-05-16T08:59:21.787Z,102917.40
2019-05-16T09:00:24.352Z,102917.40
2019-05-16T09:01:25.923Z,102921.44
2019-05-16T09:02:33.592Z,102919.25
2019-05-16T09:03:32.270Z,102918.75
2019-05-16T09:04:34.559Z,102917.03
2019-05-16T09:05:35.945Z,102913.86
2019-05-16T09:06:37.417Z,102914.70
2019-05-16T09:07:38.814Z,102909.56
2019-05-16T09:08:40.254Z,102910.30
2019-05-16T09:09:48.920Z,102907.23
2019-05-16T09:10:36.027Z,102927.20
2019-05-16T09:10:55.611Z,102899.14
2019-05-16T09:11:48.876Z,102904.06
2019-05-16T09:12:50.396Z,102892.41
2019-05-16T09:13:51.914Z,102895.09
2019-05-16T09:14:53.388Z,102899.14
2019-05-16T09:15:57.042Z,102900.48
2019-05-16T09:16:58.265Z,102899.14
2019-05-16T09:17:59.664Z,102900.13
2019-05-16T09:19:01.074Z,102898.41
2019-05-16T09:20:07.133Z,102895.09
2019-05-16T09:21:07.806Z,102900.48
2019-05-16T09:22:09.215Z,102904.90
2019-05-16T09:23:10.638Z,102891.05
2019-05-16T09:24:12.161Z,102892.41
2019-05-16T09:25:14.539Z,102891.05
2019-05-16T09:26:19.865Z,102887.88
2019-05-16T09:27:20.373Z,102893.64
2019-05-16T09:28:22.774Z,102893.49
2019-05-16T09:29:24.169Z,102890.94
2019-05-16T09:30:27.436Z,102891.78
2019-05-16T09:31:28.935Z,102893.12
2019-05-16T09:32:30.322Z,102888.25
2019-05-16T09:33:31.699Z,102889.59
2019-05-16T09:34:33.127Z,102887.37
2019-05-16T09:35:37.026Z,102887.73
2019-05-16T09:36:37.802Z,102884.67
2019-05-16T09:37:39.181Z,102886.39
2019-05-16T09:38:40.677Z,102884.67
2019-05-16T09:39:42.065Z,102886.90
2019-05-16T09:40:43.454Z,102882.48
2019-05-16T09:41:52.179Z,102883.69
2019-05-16T09:42:48.230Z,102880.16
2019-05-16T09:43:49.617Z,102880.02
2019-05-16T09:44:51.018Z,102874.25
2019-05-16T09:45:59.962Z,102877.31
2019-05-16T09:46:57.107Z,102879.64
2019-05-16T09:47:58.658Z,102874.62
2019-05-16T09:49:15.805Z,102873.27
2019-05-16T09:50:07.012Z,102874.62
2019-05-16T09:51:08.432Z,102872.32
2019-05-16T09:52:09.823Z,102869.12
2019-05-16T09:53:11.309Z,102870.58
2019-05-16T09:54:12.701Z,102873.16
2019-05-16T09:55:17.336Z,102872.80
2019-05-16T09:56:18.309Z,102866.05
2019-05-16T09:57:19.696Z,102866.92
2019-05-16T09:58:21.144Z,102859.68
2019-05-16T09:59:22.529Z,102865.44
2019-05-16T10:00:26.908Z,102865.94
2019-05-16T10:01:28.004Z,102865.58
2019-05-16T10:02:29.441Z,102869.84
2019-05-16T10:03:30.827Z,102860.41
2019-05-16T10:04:32.225Z,102865.94
2019-05-16T10:05:33.734Z,102858.33
2019-05-16T10:06:37.152Z,102859.20
2019-05-16T10:07:39.036Z,102862.27
2019-05-16T10:08:40.549Z,102855.89
2019-05-16T10:09:47.057Z,102849.14
2019-05-16T10:10:45.352Z,102853.30
2019-05-16T10:11:49.486Z,102851.48
2019-05-16T10:12:50.144Z,102851.48
2019-05-16T10:13:51.617Z,102847.80
2019-05-16T10:14:53.037Z,102848.78
2019-05-16T10:15:54.545Z,102850.23
2019-05-16T10:16:57.877Z,102853.81
2019-05-16T10:17:59.260Z,102855.16
2019-05-16T10:19:00.661Z,102855.27
2019-05-16T10:20:03.269Z,102854.91
2019-05-16T10:21:04.693Z,102852.09
2019-05-16T10:22:07.304Z,102851.70
2019-05-16T10:23:15.001Z,102853.92
2019-05-16T10:24:12.292Z,102841.89
2019-05-16T10:25:19.102Z,102840.91
2019-05-16T10:26:19.533Z,102836.50
2019-05-16T10:27:20.853Z,102844.95
2019-05-16T10:28:22.411Z,102847.66
2019-05-16T10:29:23.885Z,102844.95
2019-05-16T10:30:26.924Z,102844.23
2019-05-16T10:31:41.511Z,102842.88
2019-05-16T10:32:31.991Z,102839.82
2019-05-16T10:33:33.381Z,102840.69
2019-05-16T10:34:36.948Z,102837.99
2019-05-16T10:35:38.051Z,102844.84
2019-05-16T10:36:39.552Z,102840.33
2019-05-16T10:37:40.968Z,102839.96
2019-05-16T10:38:42.400Z,102839.09
2019-05-16T10:39:43.799Z,102835.92
2019-05-16T10:40:47.579Z,102833.70
2019-05-16T10:41:48.646Z,102827.10
2019-05-16T10:42:50.124Z,102830.64
2019-05-16T10:43:51.556Z,102833.33
2019-05-16T10:44:52.912Z,102827.58
2019-05-16T10:45:54.307Z,102829.80
2019-05-16T10:46:55.825Z,102829.43
2019-05-16T10:47:57.342Z,102830.27
2019-05-16T10:48:58.870Z,102824.15
2019-05-16T10:50:00.284Z,102828.56
2019-05-16T10:51:01.695Z,102835.81
2019-05-16T10:52:03.121Z,102828.20
2019-05-16T10:53:28.023Z,102827.36
2019-05-16T10:54:13.343Z,102830.05
2019-05-16T10:55:11.597Z,102829.17
2019-05-16T10:56:13.019Z,102827.83
2019-05-16T10:57:14.593Z,102829.17
2019-05-16T10:58:32.996Z,102823.42
2019-05-16T10:59:54.427Z,102829.33
2019-05-16T11:00:49.027Z,102826.12
2019-05-16T11:01:28.670Z,102821.71
2019-05-16T11:02:29.675Z,102826.12
2019-05-16T11:03:31.177Z,102821.71
2019-05-16T11:04:49.564Z,102822.70
2019-05-16T11:05:39.031Z,102827.25
2019-05-16T11:06:39.478Z,102817.30
2019-05-16T11:07:41.114Z,102822.22
2019-05-16T11:08:42.575Z,102820.00
2019-05-16T11:09:55.851Z,102822.70
2019-05-16T11:10:47.705Z,102824.05
2019-05-16T11:11:49.241Z,102827.61
2019-05-16T11:12:55.181Z,102814.75
2019-05-16T11:13:53.927Z,102819.63
2019-05-16T11:14:55.334Z,102816.57
2019-05-16T11:15:56.709Z,102813.88
2019-05-16T11:16:58.294Z,102816.57
2019-05-16T11:18:00.221Z,102808.48
2019-05-16T11:19:14.326Z,102808.12
2019-05-16T11:20:05.947Z,102811.33
2019-05-16T11:21:07.409Z,102814.39
2019-05-16T11:22:08.796Z,102804.66
2019-05-16T11:23:10.226Z,102804.19
2019-05-16T11:24:13.346Z,102806.01
2019-05-16T11:25:24.895Z,102803.31
2019-05-16T11:26:18.373Z,102801.97
2019-05-16T11:27:19.869Z,102803.71
2019-05-16T11:28:21.250Z,102803.31
2019-05-16T11:29:22.703Z,102801.12
2019-05-16T11:30:24.354Z,102799.78
2019-05-16T11:31:26.699Z,102793.04
2019-05-16T11:32:28.257Z,102802.36
2019-05-16T11:33:29.788Z,102791.19
2019-05-16T11:34:31.156Z,102792.17
2019-05-16T11:35:32.553Z,102792.05
2019-05-16T11:36:33.922Z,102796.58
2019-05-16T11:37:37.481Z,102790.71
2019-05-16T11:38:38.749Z,102792.05
2019-05-16T11:39:40.108Z,102792.45
2019-05-16T11:40:41.534Z,102788.48
2019-05-16T11:41:42.896Z,102791.19
2019-05-16T11:42:47.074Z,102784.45
2019-05-16T11:43:47.611Z,102784.08
2019-05-16T11:44:49.036Z,102783.09
2019-05-16T11:45:50.443Z,102788.48
2019-05-16T11:46:51.904Z,102781.75
2019-05-16T11:47:53.570Z,102785.31